createdAt,value
2022-08-26T00:02:25.960Z,10.60
2022-08-26T00:04:54.181Z,11.68
2022-08-26T00:07:21.513Z,12.20
2022-08-26T00:09:48.381Z,12.50
2022-08-26T00:12:17.321Z,11.98
2022-08-26T00:14:44.981Z,11.60
2022-08-26T00:17:12.149Z,11.85
2022-08-26T00:19:39.333Z,11.73
2022-08-26T00:22:07.426Z,12.40
2022-08-26T00:24:34.202Z,11.80
2022-08-26T00:27:01.298Z,12.50
2022-08-26T00:29:29.025Z,11.75
2022-08-26T00:31:59.056Z,12.53
2022-08-26T00:34:25.797Z,12.48
2022-08-26T00:36:53.025Z,11.65
2022-08-26T00:39:20.860Z,12.60
2022-08-26T00:41:48.257Z,11.88
2022-08-26T00:44:15.450Z,12.18
2022-08-26T00:46:46.436Z,12.23
2022-08-26T00:49:19.481Z,12.25
2022-08-26T00:51:51.089Z,11.95
2022-08-26T00:54:19.881Z,12.05
2022-08-26T00:56:49.979Z,11.98
2022-08-26T00:59:18.149Z,12.13
2022-08-26T01:01:45.998Z,11.20
2022-08-26T01:04:15.611Z,12.87
2022-08-26T01:06:44.312Z,12.20
2022-08-26T01:09:11.976Z,12.52
2022-08-26T01:11:39.557Z,12.73
2022-08-26T01:14:07.046Z,12.07
2022-08-26T01:16:35.594Z,12.27
2022-08-26T01:19:06.469Z,12.25
2022-08-26T01:21:41.333Z,12.02
2022-08-26T01:24:10.271Z,13.20
2022-08-26T01:26:41.416Z,12.32
2022-08-26T01:29:12.770Z,12.87
2022-08-26T01:31:41.798Z,13.03
2022-08-26T01:34:13.013Z,12.70
2022-08-26T01:36:40.488Z,12.35
2022-08-26T01:39:09.859Z,12.60
2022-08-26T01:41:38.609Z,13.13
2022-08-26T01:44:07.876Z,12.23
2022-08-26T01:46:37.379Z,12.43
2022-08-26T01:49:07.084Z,12.27
2022-08-26T01:51:37.349Z,12.27
2022-08-26T01:54:05.136Z,12.30
2022-08-26T01:56:33.449Z,12.35
2022-08-26T01:59:05.952Z,12.20
2022-08-26T02:01:33.256Z,11.80
2022-08-26T02:04:04.600Z,11.97
2022-08-26T02:06:32.573Z,11.87
2022-08-26T02:09:01.608Z,11.85
2022-08-26T02:11:28.860Z,12.35
2022-08-26T02:13:57.852Z,12.17
2022-08-26T02:16:26.426Z,12.35
2022-08-26T02:18:54.471Z,11.52
2022-08-26T02:21:22.864Z,11.63
2022-08-26T02:23:52.364Z,11.80
2022-08-26T02:26:24.340Z,11.87
2022-08-26T02:29:02.492Z,12.40
2022-08-26T02:31:29.761Z,13.07
2022-08-26T02:33:57.054Z,12.65
2022-08-26T02:36:28.438Z,12.02
2022-08-26T02:38:55.844Z,12.57
2022-08-26T02:41:23.817Z,11.93
2022-08-26T02:43:51.805Z,12.05
2022-08-26T02:46:21.437Z,12.18
2022-08-26T02:48:55.356Z,11.70
2022-08-26T02:51:22.514Z,12.50
2022-08-26T02:53:50.256Z,11.85
2022-08-26T02:56:18.257Z,12.30
2022-08-26T02:58:45.057Z,11.73
2022-08-26T03:01:29.928Z,12.18
2022-08-26T03:03:57.666Z,12.30
2022-08-26T03:06:25.024Z,11.45
2022-08-26T03:08:53.184Z,12.00
2022-08-26T03:11:20.357Z,12.18
2022-08-26T03:13:49.274Z,12.65
2022-08-26T03:16:17.171Z,12.63
2022-08-26T03:18:44.399Z,12.45
2022-08-26T03:21:19.748Z,11.98
2022-08-26T03:23:47.224Z,13.38
2022-08-26T03:26:15.782Z,12.38
2022-08-26T03:29:03.231Z,12.80
2022-08-26T03:31:30.371Z,12.40
2022-08-26T03:33:59.529Z,12.35
2022-08-26T03:36:26.924Z,11.80
2022-08-26T03:38:54.367Z,11.63
2022-08-26T03:41:21.759Z,11.68
2022-08-26T03:43:50.754Z,11.27
2022-08-26T03:46:21.050Z,11.25
2022-08-26T03:48:48.237Z,11.45
2022-08-26T03:51:18.466Z,12.25
2022-08-26T03:53:47.176Z,12.20
2022-08-26T03:56:15.712Z,11.20
2022-08-26T03:58:44.456Z,11.63
2022-08-26T04:01:12.215Z,12.18
2022-08-26T04:04:00.367Z,11.80
2022-08-26T04:06:28.851Z,11.73
2022-08-26T04:08:56.943Z,11.57
2022-08-26T04:11:28.367Z,13.50
2022-08-26T04:13:59.491Z,12.18
2022-08-26T04:16:27.693Z,11.82
2022-08-26T04:18:55.009Z,11.43
2022-08-26T04:21:22.227Z,11.98
2022-08-26T04:23:49.743Z,11.90
2022-08-26T04:26:19.688Z,12.48
2022-08-26T04:28:47.431Z,11.95
2022-08-26T04:31:15.480Z,12.57
2022-08-26T04:33:43.218Z,12.68
2022-08-26T04:36:11.070Z,12.80
2022-08-26T04:38:38.907Z,12.20
2022-08-26T04:41:15.292Z,12.13
2022-08-26T04:43:44.720Z,11.95
2022-08-26T04:46:13.662Z,11.98
2022-08-26T04:48:41.569Z,11.40
2022-08-26T04:51:09.783Z,12.45
2022-08-26T04:53:37.314Z,11.93
2022-08-26T04:56:04.843Z,12.30
2022-08-26T04:58:32.434Z,12.80
2022-08-26T05:01:00.027Z,12.27
2022-08-26T05:03:30.312Z,12.70
2022-08-26T05:05:57.861Z,13.32
2022-08-26T05:08:25.298Z,13.00
2022-08-26T05:10:56.015Z,12.85
2022-08-26T05:13:24.921Z,12.68
2022-08-26T05:15:52.760Z,11.90
2022-08-26T05:18:21.317Z,11.95
2022-08-26T05:20:51.338Z,11.70
2022-08-26T05:23:22.612Z,10.68
2022-08-26T05:25:52.757Z,10.63
2022-08-26T05:28:22.580Z,10.65
2022-08-26T05:30:50.801Z,10.65
2022-08-26T05:33:18.673Z,11.00
2022-08-26T05:35:46.820Z,11.05
2022-08-26T05:38:15.548Z,10.53
2022-08-26T05:40:44.662Z,11.07
2022-08-26T05:43:13.418Z,11.60
2022-08-26T05:45:46.122Z,11.57
2022-08-26T05:48:13.943Z,11.30
2022-08-26T05:50:43.827Z,12.32
2022-08-26T05:53:12.831Z,11.70
2022-08-26T05:55:44.374Z,13.00
2022-08-26T05:58:11.937Z,12.10
2022-08-26T06:00:39.453Z,11.52
2022-08-26T06:03:09.104Z,11.40
2022-08-26T06:05:40.553Z,12.25
2022-08-26T06:08:15.044Z,12.20
2022-08-26T06:10:51.469Z,11.55
2022-08-26T06:13:20.133Z,11.50
2022-08-26T06:15:48.917Z,12.70
2022-08-26T06:18:17.560Z,13.23
2022-08-26T06:20:57.043Z,12.52
2022-08-26T06:23:45.978Z,12.82
2022-08-26T06:26:13.433Z,14.93
2022-08-26T06:28:40.700Z,15.17
2022-08-26T06:31:10.922Z,15.55
2022-08-26T06:33:38.155Z,15.43
2022-08-26T06:36:06.819Z,14.80
2022-08-26T06:38:34.352Z,16.20
2022-08-26T06:41:03.612Z,16.08
2022-08-26T06:43:30.740Z,15.80
2022-08-26T06:46:01.718Z,15.73
2022-08-26T06:48:31.854Z,14.73
2022-08-26T06:51:18.960Z,15.45
2022-08-26T06:53:50.276Z,15.32
2022-08-26T06:56:21.692Z,16.85
2022-08-26T06:58:49.239Z,15.23
2022-08-26T07:01:16.931Z,18.02
2022-08-26T07:03:46.553Z,17.25
2022-08-26T07:06:14.146Z,16.63
2022-08-26T07:08:41.260Z,15.85
2022-08-26T07:11:09.257Z,16.98
2022-08-26T07:13:37.683Z,15.95
2022-08-26T07:16:05.948Z,16.48
2022-08-26T07:18:34.388Z,14.77
2022-08-26T07:21:02.959Z,15.35
2022-08-26T07:23:30.307Z,14.98
2022-08-26T07:25:57.172Z,14.50
2022-08-26T07:28:24.407Z,13.73
2022-08-26T07:30:52.723Z,14.15
2022-08-26T07:33:20.276Z,14.65
2022-08-26T07:35:47.391Z,14.35
2022-08-26T07:38:14.644Z,13.85
2022-08-26T07:40:42.479Z,12.32
2022-08-26T07:43:10.215Z,12.50
2022-08-26T07:45:38.196Z,12.77
2022-08-26T07:48:05.514Z,14.57
2022-08-26T07:50:50.027Z,14.82
2022-08-26T07:53:18.079Z,13.97
2022-08-26T07:55:46.599Z,12.97
2022-08-26T07:58:14.219Z,13.68
2022-08-26T08:00:42.055Z,12.68
2022-08-26T08:03:10.548Z,12.23
2022-08-26T08:05:38.043Z,12.90
2022-08-26T08:08:27.959Z,11.88
2022-08-26T08:10:57.658Z,12.18
2022-08-26T08:13:26.251Z,11.77
2022-08-26T08:15:53.534Z,12.07
2022-08-26T08:18:23.038Z,11.70
2022-08-26T08:20:59.446Z,10.77
2022-08-26T08:23:33.151Z,10.37
2022-08-26T08:26:15.702Z,10.07
2022-08-26T08:28:44.183Z,12.30
2022-08-26T08:31:21.604Z,11.07
2022-08-26T08:34:00.494Z,10.87
2022-08-26T08:36:27.775Z,9.73
2022-08-26T08:39:03.183Z,9.82
2022-08-26T08:41:52.175Z,10.35
2022-08-26T08:44:22.865Z,10.33
2022-08-26T08:46:52.526Z,9.83
2022-08-26T08:49:19.839Z,8.63
2022-08-26T08:52:06.878Z,8.27
2022-08-26T08:54:34.006Z,9.13
2022-08-26T08:57:02.747Z,8.83
2022-08-26T08:59:35.036Z,8.32
2022-08-26T09:02:05.610Z,8.43
2022-08-26T09:04:41.534Z,7.80
2022-08-26T09:07:11.319Z,9.23
2022-08-26T09:09:44.550Z,10.10
2022-08-26T09:12:15.474Z,9.43
2022-08-26T09:14:44.338Z,9.65
2022-08-26T09:17:31.190Z,9.40
2022-08-26T09:20:07.210Z,9.52
2022-08-26T09:22:37.569Z,9.32
2022-08-26T09:25:11.119Z,8.98
2022-08-26T09:27:38.389Z,9.20
2022-08-26T09:30:06.139Z,8.73
2022-08-26T09:32:35.113Z,9.00
2022-08-26T09:35:02.336Z,9.02
2022-08-26T09:37:38.293Z,8.07
2022-08-26T09:40:22.660Z,8.07
2022-08-26T09:43:09.809Z,8.70
2022-08-26T09:45:38.831Z,8.00
2022-08-26T09:48:07.206Z,8.02
2022-08-26T09:50:38.558Z,6.65
2022-08-26T09:53:14.448Z,7.55
2022-08-26T09:55:43.110Z,7.18
2022-08-26T09:58:14.591Z,6.72
2022-08-26T10:00:43.570Z,7.20
2022-08-26T10:03:12.361Z,6.60
2022-08-26T10:05:47.576Z,7.30
2022-08-26T10:08:18.488Z,7.10
2022-08-26T10:10:46.224Z,6.80
2022-08-26T10:13:19.727Z,6.57
2022-08-26T10:15:55.580Z,7.20
2022-08-26T10:18:25.043Z,6.88
2022-08-26T10:20:57.108Z,6.80
2022-08-26T10:23:26.911Z,7.10
2022-08-26T10:25:57.985Z,6.90
2022-08-26T10:28:37.865Z,6.87
2022-08-26T10:31:14.767Z,6.85
2022-08-26T10:33:43.096Z,6.72
2022-08-26T10:36:39.373Z,6.95
2022-08-26T10:39:17.288Z,6.97
2022-08-26T10:41:46.425Z,7.10
2022-08-26T10:44:14.964Z,6.88
2022-08-26T10:46:46.289Z,6.93
2022-08-26T10:49:15.505Z,6.70
2022-08-26T10:51:48.816Z,7.45
2022-08-26T10:54:17.000Z,6.97
2022-08-26T10:57:04.612Z,8.10
2022-08-26T11:00:36.124Z,7.03
2022-08-26T11:03:21.913Z,7.18
2022-08-26T11:06:10.398Z,7.15
2022-08-26T11:08:45.763Z,6.70
2022-08-26T11:11:12.883Z,6.28
2022-08-26T11:14:00.163Z,6.60
2022-08-26T11:16:35.250Z,6.50
2022-08-26T11:19:02.863Z,6.93
2022-08-26T11:21:44.151Z,6.50
2022-08-26T11:24:31.825Z,6.97
2022-08-26T11:26:58.955Z,6.43
2022-08-26T11:29:47.144Z,6.35
2022-08-26T11:32:34.789Z,6.37
2022-08-26T11:35:05.104Z,6.43
2022-08-26T11:37:37.530Z,6.30
2022-08-26T11:40:10.032Z,6.00
2022-08-26T11:42:43.050Z,6.80
2022-08-26T11:45:28.378Z,6.07
2022-08-26T11:47:55.506Z,6.27
2022-08-26T11:50:26.183Z,6.47
2022-08-26T11:53:01.855Z,6.10
2022-08-26T11:55:30.476Z,6.50
2022-08-26T11:58:00.078Z,6.30
2022-08-26T12:00:33.291Z,6.25
2022-08-26T12:03:02.468Z,6.03
2022-08-26T12:05:31.372Z,6.28
2022-08-26T12:08:00.877Z,6.43
2022-08-26T12:10:30.212Z,6.32
2022-08-26T12:12:58.897Z,6.47
2022-08-26T12:15:26.852Z,6.25
2022-08-26T12:17:56.836Z,5.95
2022-08-26T12:20:46.005Z,6.35
2022-08-26T12:23:28.827Z,6.05
2022-08-26T12:26:05.308Z,6.10
2022-08-26T12:28:33.596Z,5.38
2022-08-26T12:31:01.913Z,6.25
2022-08-26T12:33:29.580Z,6.22
2022-08-26T12:35:57.398Z,6.28
2022-08-26T12:38:26.100Z,6.05
2022-08-26T12:40:53.663Z,6.15
2022-08-26T12:43:37.247Z,6.27
2022-08-26T12:46:06.689Z,6.07
2022-08-26T12:48:35.985Z,6.22
2022-08-26T12:51:03.860Z,6.07
2022-08-26T12:53:32.587Z,6.35
2022-08-26T12:56:02.459Z,6.38
2022-08-26T12:58:32.492Z,5.78
2022-08-26T13:00:59.732Z,6.65
2022-08-26T13:03:26.872Z,6.20
2022-08-26T13:05:53.967Z,5.97
2022-08-26T13:08:26.361Z,6.40
2022-08-26T13:11:11.407Z,6.10
2022-08-26T13:13:38.847Z,6.07
2022-08-26T13:16:06.960Z,6.00
2022-08-26T13:18:34.131Z,6.47
2022-08-26T13:21:01.327Z,6.03
2022-08-26T13:23:28.479Z,5.77
2022-08-26T13:25:55.592Z,6.10
2022-08-26T13:28:22.786Z,6.17
2022-08-26T13:30:49.966Z,5.83
2022-08-26T13:33:18.438Z,5.90
2022-08-26T13:35:45.766Z,6.43
2022-08-26T13:38:18.583Z,5.68
2022-08-26T13:41:00.752Z,6.13
2022-08-26T13:43:28.199Z,5.93
2022-08-26T13:45:55.750Z,5.43
2022-08-26T13:48:23.684Z,5.80
2022-08-26T13:50:52.060Z,5.90
2022-08-26T13:53:19.257Z,5.65
2022-08-26T13:55:46.359Z,6.65
2022-08-26T13:58:13.686Z,5.75
2022-08-26T14:00:41.301Z,5.72
2022-08-26T14:03:13.083Z,6.00
2022-08-26T14:05:40.668Z,5.30
2022-08-26T14:08:08.126Z,5.00
2022-08-26T14:10:35.258Z,4.07
2022-08-26T14:13:02.507Z,4.32
2022-08-26T14:15:34.187Z,5.33
2022-08-26T14:18:03.003Z,3.58
2022-08-26T14:20:31.777Z,2.90
2022-08-26T14:23:13.302Z,4.00
2022-08-26T14:25:41.421Z,3.25
2022-08-26T14:28:08.518Z,3.42
2022-08-26T14:30:35.887Z,4.30
2022-08-26T14:33:02.614Z,6.37
2022-08-26T14:35:30.756Z,8.25
2022-08-26T14:37:58.105Z,7.13
2022-08-26T14:40:29.252Z,4.20
2022-08-26T14:42:58.739Z,3.78
2022-08-26T14:45:28.628Z,4.80
2022-08-26T14:47:56.946Z,5.82
2022-08-26T14:50:26.047Z,5.10
2022-08-26T14:53:13.169Z,4.50
2022-08-26T14:55:41.273Z,3.58
2022-08-26T14:58:09.850Z,4.40
2022-08-26T15:00:37.490Z,4.07
2022-08-26T15:03:04.686Z,4.93
2022-08-26T15:05:32.545Z,4.80
2022-08-26T15:07:59.282Z,4.88
2022-08-26T15:10:26.729Z,4.35
2022-08-26T15:12:53.425Z,4.63
2022-08-26T15:15:20.865Z,4.80
2022-08-26T15:17:48.011Z,5.00
2022-08-26T15:20:16.644Z,6.32
2022-08-26T15:22:44.439Z,6.70
2022-08-26T15:25:11.676Z,6.60
2022-08-26T15:27:39.161Z,6.63
2022-08-26T15:30:07.696Z,6.78
2022-08-26T15:32:34.814Z,6.35
2022-08-26T15:35:05.530Z,5.33
2022-08-26T15:37:35.830Z,4.70
2022-08-26T15:40:03.095Z,5.07
2022-08-26T15:42:30.224Z,4.43
2022-08-26T15:44:57.429Z,3.78
2022-08-26T15:47:24.855Z,3.13
2022-08-26T15:49:51.933Z,3.35
2022-08-26T15:52:19.052Z,3.35
2022-08-26T15:54:45.775Z,3.55
2022-08-26T15:57:15.349Z,4.07
2022-08-26T15:59:43.628Z,4.60
2022-08-26T16:02:11.280Z,5.20
2022-08-26T16:04:38.429Z,5.20
2022-08-26T16:07:05.724Z,4.32
2022-08-26T16:09:32.869Z,4.00
2022-08-26T16:12:00.069Z,4.10
2022-08-26T16:14:27.196Z,5.32
2022-08-26T16:16:54.754Z,4.40
2022-08-26T16:19:21.991Z,3.58
2022-08-26T16:21:51.231Z,5.10
2022-08-26T16:24:23.893Z,4.53
2022-08-26T16:26:54.267Z,3.90
2022-08-26T16:29:21.405Z,5.05
2022-08-26T16:31:51.923Z,4.07
2022-08-26T16:34:19.107Z,5.13
2022-08-26T16:36:46.325Z,5.28
2022-08-26T16:39:13.491Z,4.90
2022-08-26T16:41:40.615Z,4.82
2022-08-26T16:44:08.695Z,4.63
2022-08-26T16:46:36.264Z,4.10
2022-08-26T16:49:04.512Z,4.20
2022-08-26T16:51:32.483Z,6.40
2022-08-26T16:54:04.018Z,6.90
2022-08-26T16:56:34.614Z,5.00
2022-08-26T16:59:02.898Z,5.07
2022-08-26T17:01:30.361Z,5.67
2022-08-26T17:03:57.502Z,6.00
2022-08-26T17:06:24.369Z,5.47
2022-08-26T17:08:52.373Z,5.90
2022-08-26T17:11:19.697Z,5.22
2022-08-26T17:13:46.771Z,6.20
2022-08-26T17:16:15.139Z,6.18
2022-08-26T17:18:42.436Z,6.05
2022-08-26T17:21:10.503Z,6.37
2022-08-26T17:23:38.150Z,5.57
2022-08-26T17:26:05.402Z,4.70
2022-08-26T17:28:32.571Z,3.95
2022-08-26T17:31:00.237Z,3.33
2022-08-26T17:33:27.813Z,3.10
2022-08-26T17:35:55.725Z,4.00
2022-08-26T17:38:23.026Z,3.72
2022-08-26T17:40:50.573Z,4.10
2022-08-26T17:43:18.005Z,6.10
2022-08-26T17:45:45.281Z,4.10
2022-08-26T17:48:12.584Z,3.90
2022-08-26T17:50:41.191Z,3.55
2022-08-26T17:53:08.735Z,2.90
2022-08-26T17:55:41.795Z,2.65
2022-08-26T17:58:12.270Z,4.15
2022-08-26T18:00:44.848Z,3.50
2022-08-26T18:03:12.115Z,4.03
2022-08-26T18:05:39.229Z,3.47
2022-08-26T18:08:06.369Z,4.85
2022-08-26T18:10:33.585Z,5.80
2022-08-26T18:13:01.222Z,6.28
2022-08-26T18:15:28.390Z,5.22
2022-08-26T18:17:55.633Z,6.93
2022-08-26T18:20:22.834Z,6.00
2022-08-26T18:22:50.051Z,8.68
2022-08-26T18:25:17.862Z,7.30
2022-08-26T18:27:45.070Z,6.32
2022-08-26T18:30:16.763Z,5.70
2022-08-26T18:32:44.286Z,5.22
2022-08-26T18:35:11.645Z,6.55
2022-08-26T18:37:38.879Z,5.80
2022-08-26T18:40:08.104Z,4.47
2022-08-26T18:42:35.657Z,3.70
2022-08-26T18:45:03.909Z,4.63
2022-08-26T18:47:31.935Z,4.63
2022-08-26T18:49:59.070Z,5.13
2022-08-26T18:52:26.258Z,6.00
2022-08-26T18:54:53.461Z,4.70
2022-08-26T18:57:20.615Z,4.18
2022-08-26T18:59:47.714Z,4.07
2022-08-26T19:02:14.934Z,4.15
2022-08-26T19:04:42.586Z,5.80
2022-08-26T19:07:10.034Z,5.18
2022-08-26T19:09:37.136Z,5.03
2022-08-26T19:12:05.253Z,7.93
2022-08-26T19:14:32.533Z,8.40
2022-08-26T19:17:00.371Z,7.90
2022-08-26T19:19:27.654Z,6.55
2022-08-26T19:21:54.777Z,10.85
2022-08-26T19:24:22.541Z,11.77
2022-08-26T19:26:57.728Z,10.15
2022-08-26T19:29:26.198Z,9.35
2022-08-26T19:31:53.345Z,7.10
2022-08-26T19:34:20.986Z,7.35
2022-08-26T19:36:48.518Z,8.40
2022-08-26T19:39:15.589Z,8.07
2022-08-26T19:41:42.739Z,9.80
2022-08-26T19:44:39.259Z,9.18
2022-08-26T19:47:07.802Z,10.05
2022-08-26T19:49:35.194Z,9.32
2022-08-26T19:52:03.046Z,8.93
2022-08-26T19:54:30.593Z,8.07
2022-08-26T19:56:58.001Z,8.50
2022-08-26T19:59:25.161Z,7.78
2022-08-26T20:02:00.847Z,7.10
2022-08-26T20:04:29.278Z,8.70
2022-08-26T20:06:57.880Z,6.20
2022-08-26T20:09:28.334Z,6.95
2022-08-26T20:11:56.852Z,10.18
2022-08-26T20:14:24.162Z,8.90
2022-08-26T20:16:51.345Z,9.82
2022-08-26T20:19:38.378Z,8.98
2022-08-26T20:22:05.969Z,9.45
2022-08-26T20:24:34.152Z,10.03
2022-08-26T20:27:06.846Z,9.80
2022-08-26T20:29:34.937Z,8.93
2022-08-26T20:32:03.327Z,9.52
2022-08-26T20:34:30.456Z,7.55
2022-08-26T20:36:57.636Z,7.80
2022-08-26T20:39:25.253Z,8.43
2022-08-26T20:41:52.396Z,8.70
2022-08-26T20:44:19.629Z,7.82
2022-08-26T20:46:46.741Z,7.90
2022-08-26T20:49:14.722Z,7.03
2022-08-26T20:51:43.607Z,6.45
2022-08-26T20:54:12.339Z,7.05
2022-08-26T20:56:39.844Z,6.15
2022-08-26T20:59:07.548Z,5.85
2022-08-26T21:01:36.462Z,6.37
2022-08-26T21:04:06.624Z,6.20
2022-08-26T21:06:34.495Z,5.80
2022-08-26T21:09:02.055Z,5.93
2022-08-26T21:11:29.564Z,6.03
2022-08-26T21:14:16.167Z,6.00
2022-08-26T21:16:44.363Z,5.13
2022-08-26T21:19:12.588Z,4.07
2022-08-26T21:21:40.658Z,4.07
2022-08-26T21:24:07.823Z,0.20
2022-08-26T21:26:34.895Z,0.10
2022-08-26T21:29:02.646Z,0.20
2022-08-26T21:31:31.879Z,0.10
2022-08-26T21:33:59.708Z,0.77
2022-08-26T21:36:27.123Z,0.25
2022-08-26T21:38:56.125Z,0.40
2022-08-26T21:41:23.250Z,0.30
2022-08-26T21:43:51.294Z,0.25
2022-08-26T21:46:21.810Z,0.20
2022-08-26T21:48:52.454Z,0.27
2022-08-26T21:51:21.515Z,0.60
2022-08-26T21:53:49.070Z,0.10
2022-08-26T21:56:17.760Z,0.40
2022-08-26T21:58:45.285Z,0.55
2022-08-26T22:01:13.554Z,0.25
2022-08-26T22:03:47.597Z,0.10
2022-08-26T22:06:16.010Z,0.70
2022-08-26T22:08:43.137Z,0.40
2022-08-26T22:11:10.387Z,0.30
2022-08-26T22:13:38.585Z,0.20
2022-08-26T22:16:06.640Z,0.10
2022-08-26T22:18:34.391Z,0.20
2022-08-26T22:21:05.883Z,0.13
2022-08-26T22:23:33.067Z,0.40
2022-08-26T22:26:00.235Z,0.40
2022-08-26T22:28:28.225Z,0.10
2022-08-26T22:30:55.654Z,0.10
2022-08-26T22:33:23.223Z,0.20
2022-08-26T22:35:51.755Z,0.28
2022-08-26T22:38:19.187Z,0.20
2022-08-26T22:40:47.966Z,0.40
2022-08-26T22:43:15.135Z,0.30
2022-08-26T22:45:43.418Z,0.13
2022-08-26T22:48:11.241Z,0.22
2022-08-26T22:50:38.558Z,0.20
2022-08-26T22:53:05.707Z,0.45
2022-08-26T22:55:32.802Z,0.20
2022-08-26T22:58:00.175Z,0.25
2022-08-26T23:00:31.970Z,0.30
2022-08-26T23:02:59.425Z,0.20
2022-08-26T23:05:26.568Z,0.10
2022-08-26T23:07:54.001Z,0.20
2022-08-26T23:10:21.294Z,0.20
2022-08-26T23:12:48.361Z,0.10
2022-08-26T23:15:15.820Z,0.20
2022-08-26T23:17:45.324Z,0.20
2022-08-26T23:20:13.584Z,0.10
2022-08-26T23:22:40.944Z,0.13
2022-08-26T23:25:09.019Z,0.10
2022-08-26T23:27:37.963Z,0.30
2022-08-26T23:30:06.118Z,0.17
2022-08-26T23:32:33.239Z,0.20
2022-08-26T23:35:00.535Z,0.33
2022-08-26T23:37:31.684Z,0.20
2022-08-26T23:39:59.819Z,0.40
2022-08-26T23:42:27.028Z,0.43
2022-08-26T23:44:56.761Z,0.30
2022-08-26T23:47:24.060Z,0.10
2022-08-26T23:49:51.185Z,0.20
2022-08-26T23:52:38.204Z,0.17
2022-08-26T23:55:05.508Z,0.20
2022-08-26T23:57:33.800Z,0.30
